createdAt,value
2023-04-16T00:00:49.793Z,99.90
2023-04-16T00:05:56.011Z,99.90
2023-04-16T00:10:59.068Z,99.90
2023-04-16T00:16:02.074Z,99.90
2023-04-16T00:21:05.524Z,99.90
2023-04-16T00:26:09.232Z,99.90
2023-04-16T00:31:12.277Z,99.90
2023-04-16T00:36:15.257Z,99.90
2023-04-16T00:41:18.287Z,99.90
2023-04-16T00:46:23.869Z,99.90
2023-04-16T00:51:27.172Z,99.90
2023-04-16T00:56:31.062Z,99.90
2023-04-16T01:01:34.043Z,99.90
2023-04-16T01:06:36.853Z,99.90
2023-04-16T01:11:39.897Z,99.90
2023-04-16T01:16:42.879Z,99.90
2023-04-16T01:21:46.742Z,99.90
2023-04-16T01:26:49.793Z,99.90
2023-04-16T01:31:52.829Z,99.90
2023-04-16T01:36:55.936Z,99.90
2023-04-16T01:41:58.820Z,99.90
2023-04-16T01:47:01.833Z,99.90
2023-04-16T01:52:05.092Z,99.90
2023-04-16T01:57:08.212Z,99.90
2023-04-16T02:02:14.852Z,99.90
2023-04-16T02:07:17.734Z,99.90
2023-04-16T02:12:20.923Z,99.90
2023-04-16T02:17:23.911Z,99.90
2023-04-16T02:22:26.839Z,99.90
2023-04-16T02:27:30.169Z,99.90
2023-04-16T02:32:33.292Z,99.90
2023-04-16T02:37:36.049Z,99.90
2023-04-16T02:42:38.935Z,99.90
2023-04-16T02:47:42.018Z,99.90
2023-04-16T02:52:45.052Z,99.90
2023-04-16T02:57:48.015Z,99.90
2023-04-16T03:02:51.245Z,99.90
2023-04-16T03:07:56.820Z,99.90
2023-04-16T03:13:00.407Z,99.90
2023-04-16T03:18:03.716Z,99.90
2023-04-16T03:23:06.706Z,99.90
2023-04-16T03:28:09.598Z,99.90
2023-04-16T03:33:12.541Z,99.90
2023-04-16T03:38:15.633Z,99.90
2023-04-16T03:43:18.649Z,99.90
2023-04-16T03:48:21.521Z,99.90
2023-04-16T03:53:24.563Z,99.90
2023-04-16T03:58:27.459Z,99.90
2023-04-16T04:03:30.760Z,99.90
2023-04-16T04:08:33.959Z,99.90
2023-04-16T04:13:36.904Z,99.90
2023-04-16T04:18:39.937Z,99.90
2023-04-16T04:23:43.791Z,99.90
2023-04-16T04:28:47.220Z,99.90
2023-04-16T04:33:50.145Z,99.90
2023-04-16T04:38:53.056Z,99.90
2023-04-16T04:43:55.850Z,99.90
2023-04-16T04:48:58.829Z,99.90
2023-04-16T04:54:01.868Z,99.90
2023-04-16T04:59:04.869Z,99.90
2023-04-16T05:04:07.893Z,99.90
2023-04-16T05:09:13.966Z,99.90
2023-04-16T05:14:17.288Z,99.90
2023-04-16T05:19:20.607Z,99.90
2023-04-16T05:24:23.588Z,99.90
2023-04-16T05:29:26.627Z,99.90
2023-04-16T05:34:29.600Z,99.90
2023-04-16T05:39:32.564Z,99.90
2023-04-16T05:44:35.562Z,99.90
2023-04-16T05:49:38.476Z,99.90
2023-04-16T05:54:41.491Z,99.90
2023-04-16T05:59:44.523Z,99.90
2023-04-16T06:04:47.478Z,99.90
2023-04-16T06:09:50.507Z,99.90
2023-04-16T06:14:53.540Z,99.90
2023-04-16T06:19:56.490Z,99.90
2023-04-16T06:24:59.418Z,99.90
2023-04-16T06:30:02.323Z,99.90
2023-04-16T06:35:06.345Z,99.90
2023-04-16T06:40:10.303Z,99.90
2023-04-16T06:45:13.748Z,99.90
2023-04-16T06:50:16.815Z,99.90
2023-04-16T06:55:19.594Z,99.90
2023-04-16T07:00:22.503Z,99.90
2023-04-16T07:05:26.221Z,99.90
2023-04-16T07:10:29.354Z,99.90
2023-04-16T07:15:32.896Z,99.90
2023-04-16T07:20:36.366Z,99.90
2023-04-16T07:25:40.172Z,99.90
2023-04-16T07:30:43.842Z,99.90
2023-04-16T07:35:47.460Z,99.90
2023-04-16T07:40:50.652Z,99.90
2023-04-16T07:45:53.622Z,99.90
2023-04-16T07:50:56.950Z,99.90
2023-04-16T07:56:00.164Z,99.90
2023-04-16T08:01:03.244Z,99.90
2023-04-16T08:06:06.787Z,99.90
2023-04-16T08:11:09.954Z,99.90
2023-04-16T08:16:12.863Z,99.90
2023-04-16T08:21:16.033Z,99.90
2023-04-16T08:26:18.980Z,99.90
2023-04-16T08:31:22.391Z,99.90
2023-04-16T08:36:25.745Z,99.90
2023-04-16T08:41:32.324Z,99.90
2023-04-16T08:46:38.749Z,99.90
2023-04-16T08:51:44.452Z,99.90
2023-04-16T08:56:49.325Z,99.90
2023-04-16T09:01:57.712Z,99.90
2023-04-16T09:07:02.436Z,99.90
2023-04-16T09:12:05.721Z,99.90
2023-04-16T09:17:09.925Z,99.90
2023-04-16T09:22:13.100Z,99.90
2023-04-16T09:27:17.115Z,98.20
2023-04-16T09:32:27.400Z,98.10
2023-04-16T09:37:31.176Z,98.70
2023-04-16T09:42:37.242Z,97.10
2023-04-16T09:47:45.964Z,96.90
2023-04-16T09:52:53.564Z,95.10
2023-04-16T09:58:01.449Z,93.30
2023-04-16T10:03:07.192Z,93.50
2023-04-16T10:08:14.675Z,93.50
2023-04-16T10:13:19.204Z,93.00
2023-04-16T10:18:23.300Z,94.10
2023-04-16T10:23:27.216Z,94.30
2023-04-16T10:28:31.157Z,94.40
2023-04-16T10:33:37.316Z,94.40
2023-04-16T10:38:49.830Z,94.30
2023-04-16T10:43:54.136Z,94.50
2023-04-16T10:49:12.793Z,94.10
2023-04-16T10:54:21.387Z,93.70
2023-04-16T10:59:25.769Z,94.10
2023-04-16T11:04:34.492Z,94.20
2023-04-16T11:09:59.957Z,93.80
2023-04-16T11:15:08.987Z,93.90
2023-04-16T11:20:28.739Z,92.60
2023-04-16T11:25:34.043Z,91.40
2023-04-16T11:30:39.066Z,92.80
2023-04-16T11:35:43.440Z,91.20
2023-04-16T11:40:49.928Z,91.20
2023-04-16T11:46:12.928Z,90.00
2023-04-16T11:51:24.003Z,84.30
2023-04-16T11:56:33.231Z,79.80
2023-04-16T12:01:38.108Z,78.40
2023-04-16T12:06:41.299Z,78.20
2023-04-16T12:11:44.596Z,77.30
2023-04-16T12:16:47.848Z,78.20
2023-04-16T12:21:51.282Z,77.20
2023-04-16T12:27:03.242Z,77.80
2023-04-16T12:32:23.377Z,75.40
2023-04-16T12:37:26.798Z,74.20
2023-04-16T12:42:35.656Z,74.70
2023-04-16T12:47:38.621Z,74.90
2023-04-16T12:52:41.742Z,73.40
2023-04-16T12:57:45.056Z,70.50
2023-04-16T13:02:48.270Z,70.70
2023-04-16T13:07:51.500Z,72.20
2023-04-16T13:12:54.448Z,72.70
2023-04-16T13:17:57.371Z,73.20
2023-04-16T13:23:01.052Z,74.10
2023-04-16T13:28:04.012Z,75.10
2023-04-16T13:33:06.979Z,75.00
2023-04-16T13:38:10.182Z,73.60
2023-04-16T13:43:14.052Z,74.60
2023-04-16T13:48:17.946Z,72.20
2023-04-16T13:53:22.026Z,72.30
2023-04-16T13:58:25.288Z,71.10
2023-04-16T14:03:28.974Z,70.30
2023-04-16T14:08:32.349Z,70.00
2023-04-16T14:13:35.363Z,69.40
2023-04-16T14:18:42.454Z,69.60
2023-04-16T14:23:45.599Z,69.50
2023-04-16T14:28:48.599Z,70.00
2023-04-16T14:33:51.634Z,71.00
2023-04-16T14:38:54.624Z,70.20
2023-04-16T14:43:59.298Z,70.10
2023-04-16T14:49:02.289Z,69.50
2023-04-16T14:54:05.384Z,66.60
2023-04-16T14:59:08.436Z,66.40
2023-04-16T15:04:11.846Z,66.90
2023-04-16T15:09:14.840Z,67.00
2023-04-16T15:14:18.410Z,67.70
2023-04-16T15:19:21.586Z,67.50
2023-04-16T15:24:26.223Z,65.90
2023-04-16T15:29:30.434Z,64.70
2023-04-16T15:34:33.379Z,65.20
2023-04-16T15:39:36.389Z,65.70
2023-04-16T15:44:39.406Z,67.10
2023-04-16T15:49:42.499Z,66.80
2023-04-16T15:54:45.875Z,67.10
2023-04-16T15:59:59.583Z,67.70
2023-04-16T16:05:12.124Z,66.70
2023-04-16T16:10:15.292Z,67.60
2023-04-16T16:15:18.343Z,68.00
2023-04-16T16:20:22.743Z,68.50
2023-04-16T16:25:25.610Z,68.50
2023-04-16T16:30:28.353Z,69.00
2023-04-16T16:35:31.879Z,69.30
2023-04-16T16:40:34.769Z,70.00
2023-04-16T16:45:38.448Z,70.00
2023-04-16T16:50:41.206Z,69.60
2023-04-16T16:55:44.205Z,70.20
2023-04-16T17:00:47.160Z,70.70
2023-04-16T17:05:50.393Z,71.10
2023-04-16T17:10:53.300Z,72.00
2023-04-16T17:15:56.255Z,72.90
2023-04-16T17:20:59.220Z,74.00
2023-04-16T17:26:03.258Z,74.70
2023-04-16T17:31:08.525Z,75.70
2023-04-16T17:36:11.535Z,76.40
2023-04-16T17:41:14.545Z,77.60
2023-04-16T17:46:17.577Z,78.60
2023-04-16T17:51:20.565Z,79.50
2023-04-16T17:56:23.784Z,80.40
2023-04-16T18:01:27.605Z,81.20
2023-04-16T18:06:30.996Z,82.80
2023-04-16T18:11:34.119Z,83.80
2023-04-16T18:16:37.073Z,84.60
2023-04-16T18:21:40.000Z,85.70
2023-04-16T18:26:45.705Z,87.60
2023-04-16T18:31:50.740Z,88.40
2023-04-16T18:36:53.756Z,89.20
2023-04-16T18:41:57.644Z,90.00
2023-04-16T18:47:00.694Z,90.40
2023-04-16T18:52:03.674Z,90.50
2023-04-16T18:57:06.900Z,91.20
2023-04-16T19:02:10.088Z,91.10
2023-04-16T19:07:13.179Z,91.00
2023-04-16T19:12:16.230Z,91.00
2023-04-16T19:17:19.208Z,90.90
2023-04-16T19:22:22.125Z,91.00
2023-04-16T19:27:28.469Z,91.10
2023-04-16T19:32:32.037Z,91.00
2023-04-16T19:37:35.101Z,90.90
2023-04-16T19:42:38.096Z,90.90
2023-04-16T19:47:41.187Z,91.00
2023-04-16T19:52:44.308Z,91.30
2023-04-16T19:57:48.387Z,91.40
2023-04-16T20:02:51.480Z,91.20
2023-04-16T20:07:55.897Z,90.70
2023-04-16T20:13:00.425Z,90.40
2023-04-16T20:18:04.120Z,89.90
2023-04-16T20:23:07.076Z,89.50
2023-04-16T20:28:10.261Z,88.80
2023-04-16T20:33:13.173Z,88.70
2023-04-16T20:38:16.279Z,88.40
2023-04-16T20:43:19.320Z,88.60
2023-04-16T20:48:22.372Z,88.70
2023-04-16T20:53:25.409Z,89.10
2023-04-16T20:58:28.975Z,89.20
2023-04-16T21:03:32.138Z,89.50
2023-04-16T21:08:35.515Z,90.00
2023-04-16T21:13:38.451Z,90.10
2023-04-16T21:18:41.614Z,90.10
2023-04-16T21:23:44.622Z,90.30
2023-04-16T21:28:48.393Z,90.50
2023-04-16T21:33:51.412Z,90.70
2023-04-16T21:38:54.519Z,90.90
2023-04-16T21:43:57.489Z,90.90
2023-04-16T21:49:00.811Z,90.70
2023-04-16T21:54:03.865Z,90.50
2023-04-16T21:59:06.727Z,90.20
2023-04-16T22:04:10.044Z,90.00
2023-04-16T22:09:13.352Z,89.20
2023-04-16T22:14:17.797Z,89.00
2023-04-16T22:19:21.729Z,88.40
2023-04-16T22:24:24.794Z,88.00
2023-04-16T22:29:27.570Z,87.70
2023-04-16T22:34:30.607Z,87.50
2023-04-16T22:39:34.205Z,86.60
2023-04-16T22:44:37.240Z,85.50
2023-04-16T22:49:40.165Z,85.60
2023-04-16T22:54:43.096Z,85.00
2023-04-16T22:59:46.326Z,84.90
2023-04-16T23:04:49.327Z,85.00
2023-04-16T23:09:52.294Z,85.20
2023-04-16T23:14:55.295Z,85.10
2023-04-16T23:19:58.366Z,85.20
2023-04-16T23:25:01.440Z,85.70
2023-04-16T23:30:05.876Z,85.40
2023-04-16T23:35:11.140Z,85.40
2023-04-16T23:40:14.261Z,85.70
2023-04-16T23:45:17.212Z,85.70
2023-04-16T23:50:20.163Z,85.70
2023-04-16T23:55:23.358Z,85.80
